sensor_id;sensor_type;location;lat;lon;timestamp;temperature;humidity
17174;DHT22;8702;48.130;-1.696;2023-07-13T00:02:15;18.90;99.90
17174;DHT22;8702;48.130;-1.696;2023-07-13T00:04:42;18.80;99.90
17174;DHT22;8702;48.130;-1.696;2023-07-13T00:07:09;18.70;99.90
17174;DHT22;8702;48.130;-1.696;2023-07-13T00:09:36;18.60;99.90
17174;DHT22;8702;48.130;-1.696;2023-07-13T00:12:03;18.60;99.90
17174;DHT22;8702;48.130;-1.696;2023-07-13T00:14:33;18.50;99.90
17174;DHT22;8702;48.130;-1.696;2023-07-13T00:17:00;18.50;99.90
17174;DHT22;8702;48.130;-1.696;2023-07-13T00:19:27;18.40;99.90
17174;DHT22;8702;48.130;-1.696;2023-07-13T00:21:54;18.40;99.90
17174;DHT22;8702;48.130;-1.696;2023-07-13T00:24:21;18.30;99.90
17174;DHT22;8702;48.130;-1.696;2023-07-13T00:26:49;18.30;99.90
17174;DHT22;8702;48.130;-1.696;2023-07-13T00:29:16;18.30;99.90
17174;DHT22;8702;48.130;-1.696;2023-07-13T00:31:45;18.10;99.90
17174;DHT22;8702;48.130;-1.696;2023-07-13T00:34:12;18.10;99.90
17174;DHT22;8702;48.130;-1.696;2023-07-13T00:36:39;18.10;99.90
17174;DHT22;8702;48.130;-1.696;2023-07-13T00:39:06;18.10;99.90
17174;DHT22;8702;48.130;-1.696;2023-07-13T00:41:32;18.10;99.90
17174;DHT22;8702;48.130;-1.696;2023-07-13T00:43:59;18.10;99.90
17174;DHT22;8702;48.130;-1.696;2023-07-13T00:46:28;18.20;99.90
17174;DHT22;8702;48.130;-1.696;2023-07-13T00:48:59;18.10;99.90
17174;DHT22;8702;48.130;-1.696;2023-07-13T00:51:32;18.00;99.90
17174;DHT22;8702;48.130;-1.696;2023-07-13T00:54:05;18.10;99.90
17174;DHT22;8702;48.130;-1.696;2023-07-13T00:56:33;18.00;99.90
17174;DHT22;8702;48.130;-1.696;2023-07-13T00:59:00;18.00;99.90
17174;DHT22;8702;48.130;-1.696;2023-07-13T01:01:29;17.90;99.90
17174;DHT22;8702;48.130;-1.696;2023-07-13T01:03:57;18.00;99.90
17174;DHT22;8702;48.130;-1.696;2023-07-13T01:06:24;18.00;99.90
17174;DHT22;8702;48.130;-1.696;2023-07-13T01:08:52;18.00;99.90
17174;DHT22;8702;48.130;-1.696;2023-07-13T01:11:20;17.90;99.90
17174;DHT22;8702;48.130;-1.696;2023-07-13T01:13:48;18.00;99.90
17174;DHT22;8702;48.130;-1.696;2023-07-13T01:16:20;18.00;99.90
17174;DHT22;8702;48.130;-1.696;2023-07-13T01:18:50;18.00;99.90
17174;DHT22;8702;48.130;-1.696;2023-07-13T01:21:19;18.00;99.90
17174;DHT22;8702;48.130;-1.696;2023-07-13T01:23:46;17.90;99.90
17174;DHT22;8702;48.130;-1.696;2023-07-13T01:26:13;17.90;99.90
17174;DHT22;8702;48.130;-1.696;2023-07-13T01:28:40;18.00;99.90
17174;DHT22;8702;48.130;-1.696;2023-07-13T01:31:08;18.00;99.90
17174;DHT22;8702;48.130;-1.696;2023-07-13T01:33:37;18.10;99.90
17174;DHT22;8702;48.130;-1.696;2023-07-13T01:36:05;18.10;99.90
17174;DHT22;8702;48.130;-1.696;2023-07-13T01:38:34;18.10;99.90
17174;DHT22;8702;48.130;-1.696;2023-07-13T01:41:01;18.10;99.90
17174;DHT22;8702;48.130;-1.696;2023-07-13T01:43:28;18.10;99.90
17174;DHT22;8702;48.130;-1.696;2023-07-13T01:45:55;18.00;99.90
17174;DHT22;8702;48.130;-1.696;2023-07-13T01:48:22;18.00;99.90
17174;DHT22;8702;48.130;-1.696;2023-07-13T01:50:50;18.00;99.90
17174;DHT22;8702;48.130;-1.696;2023-07-13T01:53:17;18.00;99.90
17174;DHT22;8702;48.130;-1.696;2023-07-13T01:55:45;18.10;99.90
17174;DHT22;8702;48.130;-1.696;2023-07-13T01:58:12;18.00;99.90
17174;DHT22;8702;48.130;-1.696;2023-07-13T02:00:39;18.00;99.90
17174;DHT22;8702;48.130;-1.696;2023-07-13T02:03:06;18.00;99.90
17174;DHT22;8702;48.130;-1.696;2023-07-13T02:05:33;17.90;99.90
17174;DHT22;8702;48.130;-1.696;2023-07-13T02:08:00;17.80;99.90
17174;DHT22;8702;48.130;-1.696;2023-07-13T02:10:27;17.90;99.90
17174;DHT22;8702;48.130;-1.696;2023-07-13T02:12:55;17.90;99.90
17174;DHT22;8702;48.130;-1.696;2023-07-13T02:15:22;18.00;99.90
17174;DHT22;8702;48.130;-1.696;2023-07-13T02:17:49;18.00;99.90
17174;DHT22;8702;48.130;-1.696;2023-07-13T02:20:16;18.00;99.90
17174;DHT22;8702;48.130;-1.696;2023-07-13T02:22:43;18.00;99.90
17174;DHT22;8702;48.130;-1.696;2023-07-13T02:25:10;18.00;99.90
17174;DHT22;8702;48.130;-1.696;2023-07-13T02:27:37;18.00;99.90
17174;DHT22;8702;48.130;-1.696;2023-07-13T02:30:06;18.00;99.90
17174;DHT22;8702;48.130;-1.696;2023-07-13T02:32:34;18.00;99.90
17174;DHT22;8702;48.130;-1.696;2023-07-13T02:35:01;18.00;99.90
17174;DHT22;8702;48.130;-1.696;2023-07-13T02:37:28;18.10;99.90
17174;DHT22;8702;48.130;-1.696;2023-07-13T02:39:56;18.10;99.90
17174;DHT22;8702;48.130;-1.696;2023-07-13T02:42:23;18.20;99.90
17174;DHT22;8702;48.130;-1.696;2023-07-13T02:44:51;18.30;99.90
17174;DHT22;8702;48.130;-1.696;2023-07-13T02:47:19;18.30;99.90
17174;DHT22;8702;48.130;-1.696;2023-07-13T02:49:46;18.30;99.90
17174;DHT22;8702;48.130;-1.696;2023-07-13T02:52:13;18.30;99.90
17174;DHT22;8702;48.130;-1.696;2023-07-13T02:54:41;18.40;99.90
17174;DHT22;8702;48.130;-1.696;2023-07-13T02:57:08;18.40;99.90
17174;DHT22;8702;48.130;-1.696;2023-07-13T02:59:35;18.40;99.90
17174;DHT22;8702;48.130;-1.696;2023-07-13T03:02:03;18.40;99.90
17174;DHT22;8702;48.130;-1.696;2023-07-13T03:04:31;18.50;99.90
17174;DHT22;8702;48.130;-1.696;2023-07-13T03:06:58;18.40;99.90
17174;DHT22;8702;48.130;-1.696;2023-07-13T03:09:25;18.50;99.90
17174;DHT22;8702;48.130;-1.696;2023-07-13T03:11:53;18.40;99.90
17174;DHT22;8702;48.130;-1.696;2023-07-13T03:14:21;18.30;99.90
17174;DHT22;8702;48.130;-1.696;2023-07-13T03:16:49;18.50;99.90
17174;DHT22;8702;48.130;-1.696;2023-07-13T03:19:16;18.50;99.90
17174;DHT22;8702;48.130;-1.696;2023-07-13T03:21:44;18.50;99.90
17174;DHT22;8702;48.130;-1.696;2023-07-13T03:24:11;18.60;99.90
17174;DHT22;8702;48.130;-1.696;2023-07-13T03:26:38;18.50;99.90
17174;DHT22;8702;48.130;-1.696;2023-07-13T03:29:05;18.60;99.90
17174;DHT22;8702;48.130;-1.696;2023-07-13T03:31:34;18.50;99.90
17174;DHT22;8702;48.130;-1.696;2023-07-13T03:34:02;18.50;99.90
17174;DHT22;8702;48.130;-1.696;2023-07-13T03:36:30;18.40;99.90
17174;DHT22;8702;48.130;-1.696;2023-07-13T03:39:02;18.40;99.90
17174;DHT22;8702;48.130;-1.696;2023-07-13T03:41:29;18.40;99.90
17174;DHT22;8702;48.130;-1.696;2023-07-13T03:43:57;18.40;99.90
17174;DHT22;8702;48.130;-1.696;2023-07-13T03:46:24;18.40;99.90
17174;DHT22;8702;48.130;-1.696;2023-07-13T03:48:51;18.30;99.90
17174;DHT22;8702;48.130;-1.696;2023-07-13T03:51:18;18.30;99.90
17174;DHT22;8702;48.130;-1.696;2023-07-13T03:53:47;18.30;99.90
17174;DHT22;8702;48.130;-1.696;2023-07-13T03:56:16;18.30;99.90
17174;DHT22;8702;48.130;-1.696;2023-07-13T03:58:44;18.40;99.90
17174;DHT22;8702;48.130;-1.696;2023-07-13T04:01:12;18.40;99.90
17174;DHT22;8702;48.130;-1.696;2023-07-13T04:03:40;18.30;99.90
17174;DHT22;8702;48.130;-1.696;2023-07-13T04:06:14;18.30;99.90
17174;DHT22;8702;48.130;-1.696;2023-07-13T04:08:47;18.20;99.90
17174;DHT22;8702;48.130;-1.696;2023-07-13T04:11:16;18.30;99.90
17174;DHT22;8702;48.130;-1.696;2023-07-13T04:13:43;18.10;99.90
17174;DHT22;8702;48.130;-1.696;2023-07-13T04:16:10;18.30;99.90
17174;DHT22;8702;48.130;-1.696;2023-07-13T04:18:37;18.20;99.90
17174;DHT22;8702;48.130;-1.696;2023-07-13T04:21:04;18.10;99.90
17174;DHT22;8702;48.130;-1.696;2023-07-13T04:23:31;18.00;99.90
17174;DHT22;8702;48.130;-1.696;2023-07-13T04:25:58;18.00;99.90
17174;DHT22;8702;48.130;-1.696;2023-07-13T04:28:27;18.00;99.90
17174;DHT22;8702;48.130;-1.696;2023-07-13T04:30:54;18.10;99.90
17174;DHT22;8702;48.130;-1.696;2023-07-13T04:33:22;18.10;99.90
17174;DHT22;8702;48.130;-1.696;2023-07-13T04:35:49;18.10;99.90
17174;DHT22;8702;48.130;-1.696;2023-07-13T04:38:22;18.10;99.90
17174;DHT22;8702;48.130;-1.696;2023-07-13T04:40:50;18.10;99.90
17174;DHT22;8702;48.130;-1.696;2023-07-13T04:43:17;18.20;99.90
17174;DHT22;8702;48.130;-1.696;2023-07-13T04:45:46;18.20;99.90
17174;DHT22;8702;48.130;-1.696;2023-07-13T04:48:13;18.20;99.90
17174;DHT22;8702;48.130;-1.696;2023-07-13T04:50:40;18.30;99.90
17174;DHT22;8702;48.130;-1.696;2023-07-13T04:53:07;18.30;99.90
17174;DHT22;8702;48.130;-1.696;2023-07-13T04:55:34;18.30;99.90
17174;DHT22;8702;48.130;-1.696;2023-07-13T04:58:01;18.30;99.90
17174;DHT22;8702;48.130;-1.696;2023-07-13T05:00:29;18.30;99.90
17174;DHT22;8702;48.130;-1.696;2023-07-13T05:02:58;18.30;99.90
17174;DHT22;8702;48.130;-1.696;2023-07-13T05:05:26;18.40;99.90
17174;DHT22;8702;48.130;-1.696;2023-07-13T05:07:54;18.40;99.90
17174;DHT22;8702;48.130;-1.696;2023-07-13T05:10:21;18.30;99.90
17174;DHT22;8702;48.130;-1.696;2023-07-13T05:12:49;18.30;99.90
17174;DHT22;8702;48.130;-1.696;2023-07-13T05:15:16;18.30;99.90
17174;DHT22;8702;48.130;-1.696;2023-07-13T05:17:46;18.30;99.90
17174;DHT22;8702;48.130;-1.696;2023-07-13T05:20:16;18.40;99.90
17174;DHT22;8702;48.130;-1.696;2023-07-13T05:22:43;18.40;99.90
17174;DHT22;8702;48.130;-1.696;2023-07-13T05:25:13;18.30;99.90
17174;DHT22;8702;48.130;-1.696;2023-07-13T05:27:40;18.40;99.90
17174;DHT22;8702;48.130;-1.696;2023-07-13T05:30:08;18.40;99.90
17174;DHT22;8702;48.130;-1.696;2023-07-13T05:32:37;18.30;99.90
17174;DHT22;8702;48.130;-1.696;2023-07-13T05:35:05;18.30;99.90
17174;DHT22;8702;48.130;-1.696;2023-07-13T05:37:33;18.40;99.90
17174;DHT22;8702;48.130;-1.696;2023-07-13T05:40:00;18.40;99.90
17174;DHT22;8702;48.130;-1.696;2023-07-13T05:42:27;18.40;99.90
17174;DHT22;8702;48.130;-1.696;2023-07-13T05:44:56;18.40;99.90
17174;DHT22;8702;48.130;-1.696;2023-07-13T05:47:23;18.40;99.90
17174;DHT22;8702;48.130;-1.696;2023-07-13T05:49:50;18.30;99.90
17174;DHT22;8702;48.130;-1.696;2023-07-13T05:52:17;18.40;99.90
17174;DHT22;8702;48.130;-1.696;2023-07-13T05:54:45;18.40;99.90
17174;DHT22;8702;48.130;-1.696;2023-07-13T05:57:12;18.30;99.90
17174;DHT22;8702;48.130;-1.696;2023-07-13T05:59:39;18.30;99.90
17174;DHT22;8702;48.130;-1.696;2023-07-13T06:02:08;18.30;99.90
17174;DHT22;8702;48.130;-1.696;2023-07-13T06:04:36;18.20;99.90
17174;DHT22;8702;48.130;-1.696;2023-07-13T06:07:03;18.20;99.90
17174;DHT22;8702;48.130;-1.696;2023-07-13T06:09:30;18.30;99.90
17174;DHT22;8702;48.130;-1.696;2023-07-13T06:11:58;18.30;99.90
17174;DHT22;8702;48.130;-1.696;2023-07-13T06:14:25;18.30;99.90
17174;DHT22;8702;48.130;-1.696;2023-07-13T06:16:52;18.20;99.90
17174;DHT22;8702;48.130;-1.696;2023-07-13T06:19:19;18.20;99.90
17174;DHT22;8702;48.130;-1.696;2023-07-13T06:21:46;18.20;99.90
17174;DHT22;8702;48.130;-1.696;2023-07-13T06:24:13;18.20;99.90
17174;DHT22;8702;48.130;-1.696;2023-07-13T06:26:40;18.40;99.90
17174;DHT22;8702;48.130;-1.696;2023-07-13T06:29:08;18.30;99.90
17174;DHT22;8702;48.130;-1.696;2023-07-13T06:31:35;18.40;99.90
17174;DHT22;8702;48.130;-1.696;2023-07-13T06:34:02;18.30;99.90
17174;DHT22;8702;48.130;-1.696;2023-07-13T06:36:29;18.40;99.90
17174;DHT22;8702;48.130;-1.696;2023-07-13T06:38:56;18.40;99.90
17174;DHT22;8702;48.130;-1.696;2023-07-13T06:41:23;18.40;99.90
17174;DHT22;8702;48.130;-1.696;2023-07-13T06:43:51;18.50;99.90
17174;DHT22;8702;48.130;-1.696;2023-07-13T06:46:22;18.60;99.90
17174;DHT22;8702;48.130;-1.696;2023-07-13T06:48:49;18.50;99.90
17174;DHT22;8702;48.130;-1.696;2023-07-13T06:51:16;18.60;99.90
17174;DHT22;8702;48.130;-1.696;2023-07-13T06:53:43;18.50;99.90
17174;DHT22;8702;48.130;-1.696;2023-07-13T06:56:10;18.50;99.90
17174;DHT22;8702;48.130;-1.696;2023-07-13T06:58:37;18.50;99.90
17174;DHT22;8702;48.130;-1.696;2023-07-13T07:01:04;18.50;99.90
17174;DHT22;8702;48.130;-1.696;2023-07-13T07:03:33;18.50;99.90
17174;DHT22;8702;48.130;-1.696;2023-07-13T07:06:01;18.60;99.90
17174;DHT22;8702;48.130;-1.696;2023-07-13T07:08:27;18.40;99.90
17174;DHT22;8702;48.130;-1.696;2023-07-13T07:10:54;18.50;99.90
17174;DHT22;8702;48.130;-1.696;2023-07-13T07:13:21;18.50;99.90
17174;DHT22;8702;48.130;-1.696;2023-07-13T07:15:50;18.40;99.90
17174;DHT22;8702;48.130;-1.696;2023-07-13T07:18:16;18.50;99.90
17174;DHT22;8702;48.130;-1.696;2023-07-13T07:20:45;18.50;99.90
17174;DHT22;8702;48.130;-1.696;2023-07-13T07:23:12;18.60;99.90
17174;DHT22;8702;48.130;-1.696;2023-07-13T07:25:40;18.50;99.90
17174;DHT22;8702;48.130;-1.696;2023-07-13T07:28:08;18.60;99.90
17174;DHT22;8702;48.130;-1.696;2023-07-13T07:30:36;18.50;99.90
17174;DHT22;8702;48.130;-1.696;2023-07-13T07:33:03;18.50;99.90
17174;DHT22;8702;48.130;-1.696;2023-07-13T07:35:30;18.50;99.90
17174;DHT22;8702;48.130;-1.696;2023-07-13T07:37:58;18.60;99.90
17174;DHT22;8702;48.130;-1.696;2023-07-13T07:40:25;18.60;99.90
17174;DHT22;8702;48.130;-1.696;2023-07-13T07:42:53;18.60;99.90
17174;DHT22;8702;48.130;-1.696;2023-07-13T07:45:21;18.70;99.90
17174;DHT22;8702;48.130;-1.696;2023-07-13T07:47:49;18.80;99.90
17174;DHT22;8702;48.130;-1.696;2023-07-13T07:50:16;19.00;99.90
17174;DHT22;8702;48.130;-1.696;2023-07-13T07:52:43;18.90;99.90
17174;DHT22;8702;48.130;-1.696;2023-07-13T07:55:11;18.90;99.90
17174;DHT22;8702;48.130;-1.696;2023-07-13T07:57:38;19.00;99.90
17174;DHT22;8702;48.130;-1.696;2023-07-13T08:00:07;19.10;99.90
17174;DHT22;8702;48.130;-1.696;2023-07-13T08:02:34;19.00;99.90
17174;DHT22;8702;48.130;-1.696;2023-07-13T08:05:02;19.10;99.90
17174;DHT22;8702;48.130;-1.696;2023-07-13T08:07:30;19.10;99.90
17174;DHT22;8702;48.130;-1.696;2023-07-13T08:09:57;19.20;99.90
17174;DHT22;8702;48.130;-1.696;2023-07-13T08:12:26;19.20;99.90
17174;DHT22;8702;48.130;-1.696;2023-07-13T08:14:53;19.10;99.90
17174;DHT22;8702;48.130;-1.696;2023-07-13T08:17:23;19.10;99.90
17174;DHT22;8702;48.130;-1.696;2023-07-13T08:19:50;19.10;99.90
17174;DHT22;8702;48.130;-1.696;2023-07-13T08:22:17;19.20;99.90
17174;DHT22;8702;48.130;-1.696;2023-07-13T08:24:44;19.20;99.90
17174;DHT22;8702;48.130;-1.696;2023-07-13T08:27:11;19.30;99.90
17174;DHT22;8702;48.130;-1.696;2023-07-13T08:29:40;19.40;99.90
17174;DHT22;8702;48.130;-1.696;2023-07-13T08:32:08;19.40;99.90
17174;DHT22;8702;48.130;-1.696;2023-07-13T08:34:36;19.50;99.90
17174;DHT22;8702;48.130;-1.696;2023-07-13T08:37:03;19.50;99.90
17174;DHT22;8702;48.130;-1.696;2023-07-13T08:39:30;19.50;99.90
17174;DHT22;8702;48.130;-1.696;2023-07-13T08:42:01;19.50;99.90
17174;DHT22;8702;48.130;-1.696;2023-07-13T08:44:38;19.40;99.90
17174;DHT22;8702;48.130;-1.696;2023-07-13T08:47:10;19.50;99.90
17174;DHT22;8702;48.130;-1.696;2023-07-13T08:49:38;19.50;99.90
17174;DHT22;8702;48.130;-1.696;2023-07-13T08:52:12;19.40;99.90
17174;DHT22;8702;48.130;-1.696;2023-07-13T08:54:44;19.50;99.90
17174;DHT22;8702;48.130;-1.696;2023-07-13T08:57:14;19.50;99.90
17174;DHT22;8702;48.130;-1.696;2023-07-13T08:59:41;19.50;99.90
17174;DHT22;8702;48.130;-1.696;2023-07-13T09:02:23;19.50;99.90
17174;DHT22;8702;48.130;-1.696;2023-07-13T09:04:56;19.60;99.90
17174;DHT22;8702;48.130;-1.696;2023-07-13T09:07:33;19.60;99.90
17174;DHT22;8702;48.130;-1.696;2023-07-13T09:10:11;19.60;99.90
17174;DHT22;8702;48.130;-1.696;2023-07-13T09:12:51;19.70;99.90
17174;DHT22;8702;48.130;-1.696;2023-07-13T09:15:27;19.70;99.90
17174;DHT22;8702;48.130;-1.696;2023-07-13T09:18:01;19.70;99.90
17174;DHT22;8702;48.130;-1.696;2023-07-13T09:20:34;19.80;99.90
17174;DHT22;8702;48.130;-1.696;2023-07-13T09:23:04;20.00;99.90
17174;DHT22;8702;48.130;-1.696;2023-07-13T09:25:35;20.10;99.90
17174;DHT22;8702;48.130;-1.696;2023-07-13T09:28:09;20.20;99.90
17174;DHT22;8702;48.130;-1.696;2023-07-13T09:30:40;20.30;99.90
17174;DHT22;8702;48.130;-1.696;2023-07-13T09:33:11;20.30;99.80
17174;DHT22;8702;48.130;-1.696;2023-07-13T09:35:38;20.40;99.50
17174;DHT22;8702;48.130;-1.696;2023-07-13T09:38:11;20.30;99.80
17174;DHT22;8702;48.130;-1.696;2023-07-13T09:40:59;20.30;99.80
17174;DHT22;8702;48.130;-1.696;2023-07-13T09:43:27;20.40;99.90
17174;DHT22;8702;48.130;-1.696;2023-07-13T09:48:24;20.50;98.60
17174;DHT22;8702;48.130;-1.696;2023-07-13T09:50:55;20.60;99.10
17174;DHT22;8702;48.130;-1.696;2023-07-13T09:53:23;20.60;99.40
17174;DHT22;8702;48.130;-1.696;2023-07-13T09:55:50;20.70;99.80
17174;DHT22;8702;48.130;-1.696;2023-07-13T09:58:19;20.80;99.40
17174;DHT22;8702;48.130;-1.696;2023-07-13T10:00:55;20.80;97.90
17174;DHT22;8702;48.130;-1.696;2023-07-13T10:03:26;20.80;97.40
17174;DHT22;8702;48.130;-1.696;2023-07-13T10:05:55;20.80;98.10
17174;DHT22;8702;48.130;-1.696;2023-07-13T10:08:29;20.90;97.50
17174;DHT22;8702;48.130;-1.696;2023-07-13T10:10:59;21.10;97.80
17174;DHT22;8702;48.130;-1.696;2023-07-13T10:13:37;21.20;96.70
17174;DHT22;8702;48.130;-1.696;2023-07-13T10:16:07;21.20;96.70
17174;DHT22;8702;48.130;-1.696;2023-07-13T10:18:41;21.20;96.20
17174;DHT22;8702;48.130;-1.696;2023-07-13T10:21:15;21.20;96.40
17174;DHT22;8702;48.130;-1.696;2023-07-13T10:23:43;21.20;96.30
17174;DHT22;8702;48.130;-1.696;2023-07-13T10:26:17;21.20;95.80
17174;DHT22;8702;48.130;-1.696;2023-07-13T10:28:49;21.40;96.40
17174;DHT22;8702;48.130;-1.696;2023-07-13T10:31:19;21.60;95.60
17174;DHT22;8702;48.130;-1.696;2023-07-13T10:33:48;21.70;96.20
17174;DHT22;8702;48.130;-1.696;2023-07-13T10:36:22;21.80;96.10
17174;DHT22;8702;48.130;-1.696;2023-07-13T10:38:51;21.90;95.80
17174;DHT22;8702;48.130;-1.696;2023-07-13T10:46:19;22.10;95.10
17174;DHT22;8702;48.130;-1.696;2023-07-13T10:48:50;22.00;94.20
17174;DHT22;8702;48.130;-1.696;2023-07-13T10:51:18;21.90;94.10
17174;DHT22;8702;48.130;-1.696;2023-07-13T10:53:48;21.90;94.10
17174;DHT22;8702;48.130;-1.696;2023-07-13T10:56:34;22.00;94.50
17174;DHT22;8702;48.130;-1.696;2023-07-13T10:59:06;22.00;93.40
17174;DHT22;8702;48.130;-1.696;2023-07-13T11:01:46;22.00;93.80
17174;DHT22;8702;48.130;-1.696;2023-07-13T11:04:16;22.10;93.90
17174;DHT22;8702;48.130;-1.696;2023-07-13T11:06:48;22.10;93.90
17174;DHT22;8702;48.130;-1.696;2023-07-13T11:09:32;22.10;93.90
17174;DHT22;8702;48.130;-1.696;2023-07-13T11:12:00;22.10;94.00
17174;DHT22;8702;48.130;-1.696;2023-07-13T11:14:35;22.20;94.40
17174;DHT22;8702;48.130;-1.696;2023-07-13T11:17:33;22.20;93.70
17174;DHT22;8702;48.130;-1.696;2023-07-13T11:20:20;22.20;93.60
17174;DHT22;8702;48.130;-1.696;2023-07-13T11:22:51;22.20;99.90
17174;DHT22;8702;48.130;-1.696;2023-07-13T11:25:27;22.20;99.90
17174;DHT22;8702;48.130;-1.696;2023-07-13T11:28:14;22.30;99.90
17174;DHT22;8702;48.130;-1.696;2023-07-13T11:30:45;22.30;99.90
17174;DHT22;8702;48.130;-1.696;2023-07-13T11:33:20;22.20;99.90
17174;DHT22;8702;48.130;-1.696;2023-07-13T11:35:57;22.30;99.90
17174;DHT22;8702;48.130;-1.696;2023-07-13T11:38:30;22.30;99.90
17174;DHT22;8702;48.130;-1.696;2023-07-13T11:41:05;22.40;99.90
17174;DHT22;8702;48.130;-1.696;2023-07-13T11:43:33;22.30;99.90
17174;DHT22;8702;48.130;-1.696;2023-07-13T11:46:13;22.30;99.90
17174;DHT22;8702;48.130;-1.696;2023-07-13T11:48:40;22.40;99.90
17174;DHT22;8702;48.130;-1.696;2023-07-13T11:51:17;22.50;99.90
17174;DHT22;8702;48.130;-1.696;2023-07-13T11:53:47;22.50;99.90
17174;DHT22;8702;48.130;-1.696;2023-07-13T11:56:15;22.40;99.90
17174;DHT22;8702;48.130;-1.696;2023-07-13T11:58:43;22.30;99.90
17174;DHT22;8702;48.130;-1.696;2023-07-13T12:01:18;22.40;99.90
17174;DHT22;8702;48.130;-1.696;2023-07-13T12:03:48;22.30;99.90
17174;DHT22;8702;48.130;-1.696;2023-07-13T12:06:27;22.40;99.90
17174;DHT22;8702;48.130;-1.696;2023-07-13T12:08:56;22.40;99.90
17174;DHT22;8702;48.130;-1.696;2023-07-13T12:11:25;22.40;99.90
17174;DHT22;8702;48.130;-1.696;2023-07-13T12:13:52;22.50;99.90
17174;DHT22;8702;48.130;-1.696;2023-07-13T12:16:28;22.50;99.90
17174;DHT22;8702;48.130;-1.696;2023-07-13T12:18:59;22.60;99.90
17174;DHT22;8702;48.130;-1.696;2023-07-13T12:21:31;22.70;99.90
17174;DHT22;8702;48.130;-1.696;2023-07-13T12:23:59;22.70;99.90
17174;DHT22;8702;48.130;-1.696;2023-07-13T12:26:28;22.70;99.90
17174;DHT22;8702;48.130;-1.696;2023-07-13T12:28:56;22.70;99.90
17174;DHT22;8702;48.130;-1.696;2023-07-13T12:31:29;22.80;99.90
17174;DHT22;8702;48.130;-1.696;2023-07-13T12:33:59;22.90;99.90
17174;DHT22;8702;48.130;-1.696;2023-07-13T12:36:30;22.90;99.90
17174;DHT22;8702;48.130;-1.696;2023-07-13T12:39:01;22.80;99.90
17174;DHT22;8702;48.130;-1.696;2023-07-13T12:41:30;22.80;99.90
17174;DHT22;8702;48.130;-1.696;2023-07-13T12:43:57;22.70;99.90
17174;DHT22;8702;48.130;-1.696;2023-07-13T12:46:27;22.80;99.90
17174;DHT22;8702;48.130;-1.696;2023-07-13T12:48:57;22.80;99.90
17174;DHT22;8702;48.130;-1.696;2023-07-13T12:51:26;22.90;99.90
17174;DHT22;8702;48.130;-1.696;2023-07-13T12:54:06;22.80;99.90
17174;DHT22;8702;48.130;-1.696;2023-07-13T12:56:33;22.70;99.90
17174;DHT22;8702;48.130;-1.696;2023-07-13T12:59:03;22.70;99.90
17174;DHT22;8702;48.130;-1.696;2023-07-13T13:01:34;22.80;99.90
17174;DHT22;8702;48.130;-1.696;2023-07-13T13:04:03;22.90;99.90
17174;DHT22;8702;48.130;-1.696;2023-07-13T13:06:34;23.00;99.90
17174;DHT22;8702;48.130;-1.696;2023-07-13T13:09:11;23.10;94.10
17174;DHT22;8702;48.130;-1.696;2023-07-13T13:11:39;23.10;93.60
17174;DHT22;8702;48.130;-1.696;2023-07-13T13:14:06;23.00;93.90
17174;DHT22;8702;48.130;-1.696;2023-07-13T13:16:35;22.90;93.90
17174;DHT22;8702;48.130;-1.696;2023-07-13T13:19:14;23.00;94.50
17174;DHT22;8702;48.130;-1.696;2023-07-13T13:21:43;23.00;94.20
17174;DHT22;8702;48.130;-1.696;2023-07-13T13:24:14;23.10;94.20
17174;DHT22;8702;48.130;-1.696;2023-07-13T13:26:41;23.20;94.10
17174;DHT22;8702;48.130;-1.696;2023-07-13T13:29:12;23.30;94.10
17174;DHT22;8702;48.130;-1.696;2023-07-13T13:31:42;23.30;93.80
17174;DHT22;8702;48.130;-1.696;2023-07-13T13:34:11;23.20;93.70
17174;DHT22;8702;48.130;-1.696;2023-07-13T13:36:39;23.20;94.00
17174;DHT22;8702;48.130;-1.696;2023-07-13T13:39:20;23.40;93.90
17174;DHT22;8702;48.130;-1.696;2023-07-13T13:41:48;23.50;93.70
17174;DHT22;8702;48.130;-1.696;2023-07-13T13:44:16;23.50;93.50
17174;DHT22;8702;48.130;-1.696;2023-07-13T13:49:14;23.80;93.00
17174;DHT22;8702;48.130;-1.696;2023-07-13T13:51:41;23.70;93.30
17174;DHT22;8702;48.130;-1.696;2023-07-13T13:54:13;23.60;93.30
17174;DHT22;8702;48.130;-1.696;2023-07-13T13:56:42;23.60;93.50
17174;DHT22;8702;48.130;-1.696;2023-07-13T13:59:10;23.60;93.40
17174;DHT22;8702;48.130;-1.696;2023-07-13T14:01:37;23.60;94.00
17174;DHT22;8702;48.130;-1.696;2023-07-13T14:04:05;23.70;93.60
17174;DHT22;8702;48.130;-1.696;2023-07-13T14:06:32;23.60;93.40
17174;DHT22;8702;48.130;-1.696;2023-07-13T14:09:00;23.50;93.50
17174;DHT22;8702;48.130;-1.696;2023-07-13T14:11:29;23.60;93.50
17174;DHT22;8702;48.130;-1.696;2023-07-13T14:13:59;23.80;93.60
17174;DHT22;8702;48.130;-1.696;2023-07-13T14:16:30;24.00;93.50
17174;DHT22;8702;48.130;-1.696;2023-07-13T14:18:58;24.10;93.10
17174;DHT22;8702;48.130;-1.696;2023-07-13T14:21:27;23.90;93.10
17174;DHT22;8702;48.130;-1.696;2023-07-13T14:23:54;23.80;93.00
17174;DHT22;8702;48.130;-1.696;2023-07-13T14:26:23;23.80;93.70
17174;DHT22;8702;48.130;-1.696;2023-07-13T14:28:54;23.80;93.20
17174;DHT22;8702;48.130;-1.696;2023-07-13T14:31:23;23.80;93.40
17174;DHT22;8702;48.130;-1.696;2023-07-13T14:33:50;23.70;93.00
17174;DHT22;8702;48.130;-1.696;2023-07-13T14:36:25;23.60;93.10
17174;DHT22;8702;48.130;-1.696;2023-07-13T14:38:53;23.60;93.20
17174;DHT22;8702;48.130;-1.696;2023-07-13T14:41:20;23.60;93.40
17174;DHT22;8702;48.130;-1.696;2023-07-13T14:43:47;23.50;93.50
17174;DHT22;8702;48.130;-1.696;2023-07-13T14:46:27;23.40;93.50
17174;DHT22;8702;48.130;-1.696;2023-07-13T14:49:03;23.40;93.60
17174;DHT22;8702;48.130;-1.696;2023-07-13T14:51:31;23.40;93.70
17174;DHT22;8702;48.130;-1.696;2023-07-13T14:54:02;23.40;93.80
17174;DHT22;8702;48.130;-1.696;2023-07-13T14:56:29;23.50;93.70
17174;DHT22;8702;48.130;-1.696;2023-07-13T14:58:56;23.50;93.70
17174;DHT22;8702;48.130;-1.696;2023-07-13T15:01:25;23.50;93.50
17174;DHT22;8702;48.130;-1.696;2023-07-13T15:03:52;23.60;93.60
17174;DHT22;8702;48.130;-1.696;2023-07-13T15:06:22;23.70;93.50
17174;DHT22;8702;48.130;-1.696;2023-07-13T15:08:48;23.70;93.40
17174;DHT22;8702;48.130;-1.696;2023-07-13T15:11:16;23.80;93.50
17174;DHT22;8702;48.130;-1.696;2023-07-13T15:13:44;24.00;93.90
17174;DHT22;8702;48.130;-1.696;2023-07-13T15:16:16;24.00;93.00
17174;DHT22;8702;48.130;-1.696;2023-07-13T15:18:46;23.90;93.20
17174;DHT22;8702;48.130;-1.696;2023-07-13T15:21:16;23.90;93.50
17174;DHT22;8702;48.130;-1.696;2023-07-13T15:23:45;24.00;93.40
17174;DHT22;8702;48.130;-1.696;2023-07-13T15:26:13;24.00;93.50
17174;DHT22;8702;48.130;-1.696;2023-07-13T15:28:41;24.10;93.50
17174;DHT22;8702;48.130;-1.696;2023-07-13T15:31:20;24.20;93.10
17174;DHT22;8702;48.130;-1.696;2023-07-13T15:33:50;24.10;92.70
17174;DHT22;8702;48.130;-1.696;2023-07-13T15:36:17;24.20;93.00
17174;DHT22;8702;48.130;-1.696;2023-07-13T15:38:45;24.10;93.10
17174;DHT22;8702;48.130;-1.696;2023-07-13T15:41:17;24.30;93.20
17174;DHT22;8702;48.130;-1.696;2023-07-13T15:43:48;24.30;93.00
17174;DHT22;8702;48.130;-1.696;2023-07-13T15:46:17;24.40;92.80
17174;DHT22;8702;48.130;-1.696;2023-07-13T15:48:44;24.60;92.90
17174;DHT22;8702;48.130;-1.696;2023-07-13T15:51:20;24.60;92.90
17174;DHT22;8702;48.130;-1.696;2023-07-13T15:53:48;24.70;92.70